Time;durP1;ratioP1;P1;durP2;ratioP2;P2;SDS_P1;SDS_P2;PMS_P1;PMS_P2;Temp;Humidity;BMP_temperature;BMP_pressure;BME280_temperature;BME280_humidity;BME280_pressure;Samples;Min_cycle;Max_cycle;Signal;HPM_P1;HPM_P2
2022/06/15 00:00:34;;;;;;;0.20;0.20;;;11.90;99.90;;;;;;4987037;28;20480;-84
2022/06/15 00:03:00;;;;;;;0.10;0.10;;;11.80;99.90;;;;;;4983086;28;20185;-85
2022/06/15 00:05:25;;;;;;;0.10;0.10;;;11.70;99.90;;;;;;4977188;28;20801;-84
2022/06/15 00:07:52;;;;;;;0.10;0.10;;;11.70;99.90;;;;;;4986439;28;20607;-84
2022/06/15 00:10:19;;;;;;;0.10;0.10;;;11.60;99.90;;;;;;5049722;28;20521;-84
2022/06/15 00:12:44;;;;;;;0.10;0.10;;;11.60;99.90;;;;;;4988209;28;20872;-85
2022/06/15 00:15:10;;;;;;;0.10;0.10;;;11.50;99.90;;;;;;5053236;28;20483;-84
2022/06/15 00:17:36;;;;;;;0.10;0.10;;;11.50;99.90;;;;;;5048653;28;20283;-84
2022/06/15 00:20:02;;;;;;;0.10;0.10;;;11.50;99.90;;;;;;4988238;28;21041;-84
2022/06/15 00:22:28;;;;;;;0.10;0.10;;;11.60;99.90;;;;;;4985920;28;20188;-84
2022/06/15 00:24:54;;;;;;;0.10;0.10;;;11.50;99.90;;;;;;4989390;28;20539;-84
2022/06/15 00:27:19;;;;;;;0.10;0.10;;;11.50;99.90;;;;;;4988081;28;20189;-84
2022/06/15 00:29:45;;;;;;;0.10;0.10;;;11.50;99.90;;;;;;4979970;28;20190;-84
2022/06/15 00:32:11;;;;;;;0.20;0.20;;;11.40;99.90;;;;;;5014421;28;20209;-85
2022/06/15 00:34:37;;;;;;;0.10;0.10;;;11.40;99.90;;;;;;4986713;28;20235;-84
2022/06/15 00:37:04;;;;;;;0.20;0.20;;;11.30;99.90;;;;;;4986216;28;20458;-84
2022/06/15 00:39:30;;;;;;;0.10;0.10;;;11.10;99.90;;;;;;4983158;28;20189;-84
2022/06/15 00:41:56;;;;;;;0.10;0.10;;;11.20;99.90;;;;;;4988788;28;20514;-84
2022/06/15 00:44:22;;;;;;;0.20;0.20;;;11.20;99.90;;;;;;5055869;28;20181;-85
2022/06/15 00:47:00;;;;;;;0.10;0.10;;;11.10;99.90;;;;;;4987700;28;20920;-84
2022/06/15 00:49:33;;;;;;;0.20;0.20;;;11.10;99.90;;;;;;4986521;28;20264;-84
2022/06/15 00:52:08;;;;;;;0.20;0.20;;;11.10;99.90;;;;;;4985493;28;20476;-84
2022/06/15 00:54:34;;;;;;;0.20;0.20;;;11.10;99.90;;;;;;4979277;28;20854;-84
2022/06/15 00:57:02;;;;;;;0.20;0.20;;;11.10;99.90;;;;;;4978769;28;20475;-84
2022/06/15 00:59:46;;;;;;;0.20;0.20;;;11.20;99.90;;;;;;4983853;28;20237;-84
2022/06/15 01:02:11;;;;;;;0.20;0.20;;;11.10;99.90;;;;;;4985560;28;20543;-84
2022/06/15 01:04:44;;;;;;;0.20;0.20;;;11.00;99.90;;;;;;4986082;28;21027;-84
2022/06/15 01:07:28;;;;;;;0.20;0.20;;;10.90;99.90;;;;;;4985940;28;20196;-84
2022/06/15 01:10:03;;;;;;;0.20;0.20;;;10.80;99.90;;;;;;4986246;28;20459;-83
2022/06/15 01:12:50;;;;;;;0.10;0.10;;;10.80;99.90;;;;;;4980187;28;20456;-83
2022/06/15 01:15:48;;;;;;;0.20;0.20;;;10.90;99.90;;;;;;4977260;28;20589;-84
2022/06/15 01:18:42;;;;;;;0.20;0.20;;;10.80;99.90;;;;;;4980550;28;20531;-84
2022/06/15 01:21:37;;;;;;;0.10;0.10;;;10.80;99.90;;;;;;4984894;28;20444;-84
2022/06/15 01:24:03;;;;;;;0.13;0.13;;;10.90;99.90;;;;;;4985508;28;20491;-84
2022/06/15 01:26:43;;;;;;;0.20;0.20;;;10.80;99.90;;;;;;4987600;28;20984;-83
2022/06/15 01:29:42;;;;;;;0.20;0.20;;;10.70;99.90;;;;;;4983640;28;20550;-84
2022/06/15 01:32:32;;;;;;;0.20;0.20;;;10.80;99.90;;;;;;4984205;28;20535;-83
2022/06/15 01:35:24;;;;;;;0.20;0.20;;;10.80;99.90;;;;;;4995986;28;21054;-85
2022/06/15 01:38:02;;;;;;;0.20;0.20;;;10.70;99.90;;;;;;4985351;28;20811;-83
2022/06/15 01:40:52;;;;;;;0.20;0.20;;;10.70;99.90;;;;;;4987171;28;20468;-84
2022/06/15 01:43:21;;;;;;;0.20;0.20;;;10.70;99.90;;;;;;4986920;28;20464;-84
2022/06/15 01:45:48;;;;;;;0.20;0.20;;;10.60;99.90;;;;;;4985690;28;20509;-81
2022/06/15 01:48:15;;;;;;;0.20;0.20;;;10.50;99.90;;;;;;4987275;28;20978;-82
2022/06/15 01:51:03;;;;;;;0.20;0.20;;;10.50;99.90;;;;;;4986286;28;20452;-82
2022/06/15 01:53:37;;;;;;;0.20;0.20;;;10.60;99.90;;;;;;4983693;28;20554;-83
2022/06/15 01:56:27;;;;;;;0.20;0.20;;;10.50;99.90;;;;;;4988248;28;20456;-84
2022/06/15 01:58:59;;;;;;;0.20;0.20;;;10.50;99.90;;;;;;4981563;28;20790;-84
2022/06/15 02:01:35;;;;;;;0.17;0.17;;;10.40;99.90;;;;;;4985392;28;20501;-84
2022/06/15 02:04:13;;;;;;;0.20;0.20;;;10.40;99.90;;;;;;4986610;28;20529;-83
2022/06/15 02:06:50;;;;;;;0.20;0.20;;;10.40;99.90;;;;;;4983301;28;20459;-84
2022/06/15 02:09:45;;;;;;;0.20;0.20;;;10.40;99.90;;;;;;4979238;28;20448;-84
2022/06/15 02:12:15;;;;;;;0.20;0.20;;;10.40;99.90;;;;;;4986708;28;20452;-83
2022/06/15 02:14:46;;;;;;;0.20;0.20;;;10.40;99.90;;;;;;4984014;28;20547;-82
2022/06/15 02:17:18;;;;;;;0.20;0.20;;;10.30;99.90;;;;;;4987248;28;20503;-82
2022/06/15 02:19:47;;;;;;;0.20;0.20;;;10.30;99.90;;;;;;4986337;28;20504;-81
2022/06/15 02:22:20;;;;;;;0.20;0.20;;;10.20;99.90;;;;;;5032797;28;20474;-81
2022/06/15 02:24:50;;;;;;;0.20;0.20;;;10.30;99.90;;;;;;4985978;28;20834;-81
2022/06/15 02:27:17;;;;;;;0.20;0.20;;;10.20;99.90;;;;;;4988113;28;20790;-81
2022/06/15 02:29:48;;;;;;;0.20;0.20;;;10.20;99.90;;;;;;4985392;28;20448;-83
2022/06/15 02:32:17;;;;;;;0.20;0.20;;;10.40;99.90;;;;;;4983767;28;20576;-83
2022/06/15 02:34:43;;;;;;;0.20;0.20;;;10.30;99.90;;;;;;5018285;28;20476;-83
2022/06/15 02:37:09;;;;;;;0.20;0.20;;;10.10;99.90;;;;;;4984956;28;20523;-84
2022/06/15 02:39:35;;;;;;;0.20;0.20;;;10.10;99.90;;;;;;4985663;28;20193;-83
2022/06/15 02:42:20;;;;;;;0.20;0.20;;;10.00;99.90;;;;;;4985778;28;20456;-84
2022/06/15 02:44:48;;;;;;;0.20;0.20;;;10.00;99.90;;;;;;4984376;28;20189;-84
2022/06/15 02:47:14;;;;;;;0.20;0.20;;;9.90;99.90;;;;;;4986676;28;20457;-84
2022/06/15 02:49:40;;;;;;;0.20;0.20;;;9.90;99.90;;;;;;4985986;28;20479;-83
2022/06/15 02:52:07;;;;;;;0.20;0.20;;;10.00;99.90;;;;;;4984600;28;20457;-83
2022/06/15 02:54:41;;;;;;;0.20;0.20;;;10.00;99.90;;;;;;4983257;28;20244;-83
2022/06/15 02:57:07;;;;;;;0.20;0.20;;;10.00;99.90;;;;;;4985433;28;21329;-84
2022/06/15 02:59:34;;;;;;;0.20;0.20;;;10.00;99.90;;;;;;4985871;28;20590;-83
2022/06/15 03:01:59;;;;;;;0.20;0.20;;;9.90;99.90;;;;;;4983534;28;20456;-81
2022/06/15 03:04:25;;;;;;;0.20;0.20;;;9.90;99.90;;;;;;4982153;28;20475;-81
2022/06/15 03:06:50;;;;;;;0.20;0.20;;;9.90;99.90;;;;;;4987804;28;20557;-82
2022/06/15 03:09:16;;;;;;;0.20;0.20;;;9.90;99.90;;;;;;4982071;28;20633;-81
2022/06/15 03:11:42;;;;;;;0.20;0.20;;;10.00;99.90;;;;;;4986727;28;20211;-81
2022/06/15 03:14:08;;;;;;;0.20;0.20;;;9.90;99.90;;;;;;4982556;28;20217;-81
2022/06/15 03:16:34;;;;;;;0.20;0.20;;;9.90;99.90;;;;;;4986930;28;20448;-81
2022/06/15 03:19:00;;;;;;;0.20;0.20;;;9.80;99.90;;;;;;4985706;28;20496;-81
2022/06/15 03:21:27;;;;;;;0.20;0.20;;;9.80;99.90;;;;;;4987777;28;21083;-82
2022/06/15 03:23:53;;;;;;;0.20;0.20;;;9.90;99.90;;;;;;4982591;28;20192;-81
2022/06/15 03:26:19;;;;;;;0.20;0.20;;;9.90;99.90;;;;;;4980555;28;20440;-81
2022/06/15 03:28:44;;;;;;;0.20;0.20;;;9.90;99.90;;;;;;4986056;28;20304;-81
2022/06/15 03:31:11;;;;;;;0.20;0.20;;;9.90;99.90;;;;;;4986606;28;20182;-81
2022/06/15 03:33:37;;;;;;;0.20;0.20;;;9.80;99.90;;;;;;4982951;28;20228;-81
2022/06/15 03:36:04;;;;;;;0.20;0.20;;;9.90;99.90;;;;;;4981994;28;20924;-82
2022/06/15 03:38:31;;;;;;;0.20;0.20;;;9.90;99.90;;;;;;4983331;28;20221;-83
2022/06/15 03:40:57;;;;;;;0.20;0.20;;;9.90;99.90;;;;;;5056477;28;20467;-84
2022/06/15 03:43:22;;;;;;;0.20;0.20;;;10.00;99.90;;;;;;4987080;28;20440;-84
2022/06/15 03:45:48;;;;;;;0.20;0.20;;;10.10;99.90;;;;;;5037908;28;20185;-83
2022/06/15 03:48:14;;;;;;;0.20;0.20;;;10.00;99.90;;;;;;4985932;28;20228;-83
2022/06/15 03:50:40;;;;;;;0.20;0.20;;;10.10;99.90;;;;;;4988933;28;20182;-83
2022/06/15 03:53:06;;;;;;;0.20;0.20;;;10.20;99.90;;;;;;5038750;28;20543;-82
2022/06/15 03:55:32;;;;;;;0.20;0.20;;;10.10;99.90;;;;;;4985078;28;20558;-81
2022/06/15 03:57:58;;;;;;;0.20;0.20;;;10.20;99.90;;;;;;4984620;28;21032;-82
2022/06/15 04:00:27;;;;;;;0.20;0.20;;;10.20;99.90;;;;;;4988973;28;20750;-82
2022/06/15 04:02:53;;;;;;;0.20;0.20;;;10.20;99.90;;;;;;4997934;28;20456;-83
2022/06/15 04:05:35;;;;;;;0.20;0.20;;;10.40;99.90;;;;;;4984104;28;20955;-84
2022/06/15 04:10:45;;;;;;;0.20;0.20;;;10.40;99.90;;;;;;4987716;28;20489;-83
2022/06/15 04:13:10;;;;;;;0.20;0.20;;;10.40;99.90;;;;;;5053847;28;20853;-83
2022/06/15 04:15:36;;;;;;;0.20;0.20;;;10.50;99.90;;;;;;4987080;28;20189;-83
2022/06/15 04:18:02;;;;;;;0.20;0.20;;;10.40;99.90;;;;;;5014619;28;20200;-84
2022/06/15 04:20:31;;;;;;;0.20;0.20;;;10.40;99.90;;;;;;5063244;28;20491;-83
2022/06/15 04:23:00;;;;;;;0.20;0.20;;;10.50;99.90;;;;;;4989055;28;20440;-83
2022/06/15 04:25:27;;;;;;;0.20;0.20;;;10.50;99.90;;;;;;5053231;28;20478;-84
2022/06/15 04:27:53;;;;;;;0.20;0.20;;;10.60;99.90;;;;;;4989859;28;20429;-84
2022/06/15 04:30:18;;;;;;;0.20;0.20;;;10.80;99.90;;;;;;5049192;28;20799;-83
2022/06/15 04:32:44;;;;;;;0.20;0.20;;;11.00;99.90;;;;;;4988430;28;20554;-84
2022/06/15 04:35:09;;;;;;;0.20;0.20;;;11.10;99.90;;;;;;5015268;28;20263;-81
2022/06/15 04:37:37;;;;;;;0.20;0.20;;;10.90;99.90;;;;;;5054617;28;20177;-81
2022/06/15 04:40:04;;;;;;;0.20;0.20;;;10.90;99.90;;;;;;4985095;28;20192;-83
2022/06/15 04:42:30;;;;;;;0.20;0.20;;;11.10;99.90;;;;;;5073974;28;20435;-85
2022/06/15 04:44:55;;;;;;;0.20;0.20;;;11.10;99.90;;;;;;5029870;28;20829;-85
2022/06/15 04:47:21;;;;;;;0.17;0.17;;;11.20;99.90;;;;;;4988152;28;20199;-84
2022/06/15 04:49:46;;;;;;;0.20;0.20;;;11.20;99.90;;;;;;4989096;28;20197;-85
2022/06/15 04:52:12;;;;;;;0.20;0.20;;;11.20;99.90;;;;;;5053845;28;20186;-86
2022/06/15 04:54:37;;;;;;;0.20;0.20;;;11.30;99.90;;;;;;4974186;28;20323;-84
2022/06/15 04:57:03;;;;;;;0.10;0.10;;;11.40;99.90;;;;;;4987751;28;20915;-85
2022/06/15 04:59:28;;;;;;;0.20;0.20;;;11.60;99.90;;;;;;4987378;28;20241;-85
2022/06/15 05:01:55;;;;;;;0.10;0.10;;;11.60;99.90;;;;;;5042603;28;20272;-84
2022/06/15 05:04:21;;;;;;;0.20;0.20;;;11.90;99.90;;;;;;5043450;28;21201;-85
2022/06/15 05:06:47;;;;;;;0.10;0.10;;;12.00;99.90;;;;;;5052292;28;20463;-85
2022/06/15 05:09:14;;;;;;;0.20;0.20;;;12.20;99.90;;;;;;4986294;28;20189;-85
2022/06/15 05:11:40;;;;;;;0.20;0.20;;;12.40;99.90;;;;;;5054362;28;20205;-84
2022/06/15 05:14:06;;;;;;;0.20;0.20;;;12.50;99.90;;;;;;5053476;28;20487;-85
2022/06/15 05:16:32;;;;;;;0.13;0.13;;;12.60;99.90;;;;;;5047509;28;20449;-84
2022/06/15 05:18:58;;;;;;;0.10;0.10;;;12.70;99.90;;;;;;4985675;28;20459;-85
2022/06/15 05:21:24;;;;;;;0.10;0.10;;;12.80;99.90;;;;;;4986230;28;20898;-84
2022/06/15 05:23:49;;;;;;;0.10;0.10;;;13.00;99.90;;;;;;4983411;28;20489;-84
2022/06/15 05:26:15;;;;;;;0.10;0.10;;;13.00;99.90;;;;;;4985165;28;20657;-83
2022/06/15 05:28:44;;;;;;;0.10;0.10;;;13.20;99.90;;;;;;4985582;28;20224;-84
2022/06/15 05:31:16;;;;;;;0.10;0.10;;;13.20;99.90;;;;;;4977474;28;20189;-83
2022/06/15 05:33:42;;;;;;;0.10;0.10;;;13.30;99.90;;;;;;4997233;28;20482;-83
2022/06/15 05:36:11;;;;;;;0.10;0.10;;;13.40;99.90;;;;;;5051917;28;20440;-84
2022/06/15 05:38:37;;;;;;;0.10;0.10;;;13.40;99.90;;;;;;4985427;28;20453;-84
2022/06/15 05:41:03;;;;;;;0.10;0.10;;;13.60;99.90;;;;;;4988769;28;20432;-84
2022/06/15 05:43:31;;;;;;;0.10;0.10;;;13.60;99.90;;;;;;4987823;28;20189;-84
2022/06/15 05:45:56;;;;;;;0.10;0.10;;;13.70;99.90;;;;;;4985347;28;20524;-85
2022/06/15 05:48:22;;;;;;;0.10;0.10;;;13.80;99.90;;;;;;4987355;28;20527;-84
2022/06/15 05:50:47;;;;;;;0.10;0.10;;;13.90;99.90;;;;;;5052027;28;20216;-84
2022/06/15 05:53:13;;;;;;;0.10;0.10;;;13.90;99.90;;;;;;4987878;28;20718;-85
2022/06/15 05:55:39;;;;;;;0.10;0.10;;;14.00;99.90;;;;;;4985982;28;20201;-84
2022/06/15 05:58:05;;;;;;;0.10;0.10;;;14.00;99.90;;;;;;5055909;28;20193;-85
2022/06/15 06:00:31;;;;;;;0.10;0.10;;;14.10;99.90;;;;;;4991566;28;20225;-84
2022/06/15 06:02:57;;;;;;;0.10;0.10;;;14.10;99.90;;;;;;5054374;28;20456;-85
2022/06/15 06:05:23;;;;;;;0.10;0.10;;;14.00;99.90;;;;;;4985455;28;20448;-85
2022/06/15 06:07:49;;;;;;;0.10;0.10;;;14.10;99.90;;;;;;5048144;28;20204;-84
2022/06/15 06:10:15;;;;;;;0.10;0.10;;;14.30;99.90;;;;;;5045390;28;20460;-86
2022/06/15 06:12:41;;;;;;;0.10;0.10;;;14.50;99.90;;;;;;5043037;28;20517;-86
2022/06/15 06:15:07;;;;;;;0.10;0.10;;;14.60;99.90;;;;;;4981652;28;20484;-86
2022/06/15 06:17:33;;;;;;;0.10;0.10;;;14.70;99.90;;;;;;5016333;28;20676;-86
2022/06/15 06:19:59;;;;;;;0.10;0.10;;;14.70;99.90;;;;;;5054210;28;20559;-86
2022/06/15 06:22:24;;;;;;;0.10;0.10;;;14.70;99.90;;;;;;4983949;28;20196;-86
2022/06/15 06:24:50;;;;;;;0.10;0.10;;;14.80;99.90;;;;;;4985033;28;20565;-86
2022/06/15 06:27:16;;;;;;;0.10;0.10;;;15.00;99.90;;;;;;4988243;28;20174;-86
2022/06/15 06:29:41;;;;;;;0.10;0.10;;;15.10;99.90;;;;;;5014371;28;20187;-85
2022/06/15 06:32:13;;;;;;;0.10;0.10;;;15.20;99.90;;;;;;5019200;28;20192;-85
2022/06/15 06:34:38;;;;;;;0.10;0.10;;;15.30;99.90;;;;;;4985112;28;20220;-85
2022/06/15 06:37:06;;;;;;;0.10;0.10;;;15.40;99.90;;;;;;4981119;28;20810;-84
2022/06/15 06:39:33;;;;;;;0.10;0.10;;;15.10;99.90;;;;;;4979396;28;20185;-84
2022/06/15 06:42:01;;;;;;;0.10;0.10;;;15.20;99.90;;;;;;5052089;28;20913;-85
2022/06/15 06:44:26;;;;;;;0.10;0.10;;;15.40;99.90;;;;;;5053664;28;20480;-85
2022/06/15 06:46:53;;;;;;;0.10;0.10;;;15.40;99.90;;;;;;5044865;28;20581;-86
2022/06/15 06:49:20;;;;;;;0.10;0.10;;;15.40;99.90;;;;;;4973500;28;20189;-85
2022/06/15 06:51:47;;;;;;;0.10;0.10;;;15.60;99.90;;;;;;4978191;28;20445;-85
2022/06/15 06:54:15;;;;;;;0.10;0.10;;;15.80;99.90;;;;;;4978648;28;20467;-85
2022/06/15 06:56:41;;;;;;;0.10;0.10;;;15.90;99.90;;;;;;4980960;28;20444;-86
2022/06/15 06:59:09;;;;;;;0.10;0.10;;;15.80;99.90;;;;;;4984986;28;20464;-86
2022/06/15 07:01:35;;;;;;;0.10;0.10;;;16.00;99.90;;;;;;5066173;28;20446;-86
2022/06/15 07:04:01;;;;;;;0.10;0.10;;;16.10;99.90;;;;;;4988577;28;20436;-85
2022/06/15 07:06:26;;;;;;;0.10;0.10;;;16.00;99.90;;;;;;4987088;28;20459;-86
2022/06/15 07:08:52;;;;;;;0.10;0.10;;;16.00;99.90;;;;;;5049760;28;20272;-85
2022/06/15 07:11:18;;;;;;;0.10;0.10;;;16.20;99.90;;;;;;4991156;28;20182;-86
2022/06/15 07:13:45;;;;;;;0.10;0.10;;;16.30;99.90;;;;;;4982335;28;20610;-88
2022/06/15 07:16:12;;;;;;;0.10;0.10;;;16.40;99.90;;;;;;4990639;28;20674;-88
2022/06/15 07:18:38;;;;;;;0.10;0.10;;;16.50;99.90;;;;;;5053877;28;20441;-86
2022/06/15 07:21:06;;;;;;;0.10;0.10;;;16.60;99.90;;;;;;4988908;28;20456;-86
2022/06/15 07:23:32;;;;;;;0.10;0.10;;;16.90;99.90;;;;;;5009595;28;20371;-87
2022/06/15 07:26:02;;;;;;;0.10;0.10;;;16.80;99.90;;;;;;4985336;28;20935;-87
2022/06/15 07:28:28;;;;;;;0.10;0.10;;;17.00;99.90;;;;;;4980364;28;20181;-86
2022/06/15 07:30:54;;;;;;;0.10;0.10;;;17.20;99.90;;;;;;5052510;28;20496;-86
2022/06/15 07:33:20;;;;;;;0.10;0.10;;;17.20;99.90;;;;;;4976144;28;20453;-86
2022/06/15 07:35:46;;;;;;;0.10;0.10;;;17.20;99.90;;;;;;4984067;28;20189;-87
2022/06/15 08:20:20;;;;;;;0.10;0.10;;;18.90;99.90;;;;;;5080095;27;20693;-87
2022/06/15 08:22:49;;;;;;;0.10;0.10;;;19.10;99.90;;;;;;5074274;28;20758;-86
2022/06/15 08:25:20;;;;;;;0.10;0.00;;;19.20;99.90;;;;;;5067759;28;20433;-87
2022/06/15 08:27:46;;;;;;;0.10;0.00;;;19.10;99.90;;;;;;5068848;28;20459;-87
2022/06/15 08:30:13;;;;;;;0.10;0.00;;;19.40;99.90;;;;;;5084976;28;20486;-86
2022/06/15 08:32:40;;;;;;;0.10;0.00;;;19.20;99.90;;;;;;5081946;28;20447;-87
2022/06/15 08:35:07;;;;;;;0.10;0.00;;;19.20;99.90;;;;;;5090057;28;20451;-87
2022/06/15 08:37:33;;;;;;;0.10;0.00;;;19.80;99.90;;;;;;5071608;28;20444;-85
2022/06/15 08:39:58;;;;;;;0.10;0.10;;;20.10;99.90;;;;;;5086630;28;20509;-87
2022/06/15 08:42:44;;;;;;;0.10;0.00;;;19.20;99.90;;;;;;5068844;28;20657;-89
2022/06/15 08:45:33;;;;;;;0.10;0.07;;;19.30;99.90;;;;;;5066586;28;20277;-88
2022/06/15 08:48:23;;;;;;;0.10;0.00;;;18.90;99.90;;;;;;5080862;28;20998;-86
2022/06/15 08:51:10;;;;;;;0.10;0.00;;;18.90;99.90;;;;;;5073935;28;20822;-86
2022/06/15 08:53:46;;;;;;;0.10;0.00;;;18.70;99.90;;;;;;5089813;28;20438;-86
2022/06/15 08:56:25;;;;;;;0.10;0.00;;;18.60;99.90;;;;;;5066166;28;20501;-85
2022/06/15 08:59:08;;;;;;;0.10;0.00;;;19.00;99.90;;;;;;5072085;28;20482;-87
2022/06/15 09:01:58;;;;;;;0.10;0.00;;;19.30;99.90;;;;;;5071094;28;20543;-86
2022/06/15 09:04:27;;;;;;;0.10;0.00;;;19.50;99.90;;;;;;5070069;28;21107;-87
2022/06/15 09:07:20;;;;;;;0.10;0.00;;;20.00;99.90;;;;;;5071472;28;20526;-86
2022/06/15 09:10:12;;;;;;;0.10;0.00;;;20.10;99.90;;;;;;5070165;28;20451;-85
2022/06/15 09:12:50;;;;;;;0.10;0.10;;;19.70;99.90;;;;;;5083422;28;20446;-85
2022/06/15 09:15:29;;;;;;;0.10;0.00;;;19.00;99.90;;;;;;5078086;28;20439;-85
2022/06/15 09:17:58;;;;;;;0.10;0.00;;;19.30;99.90;;;;;;5073823;28;20465;-85
2022/06/15 09:20:28;;;;;;;0.10;0.10;;;19.00;99.90;;;;;;5075181;28;20934;-85
2022/06/15 09:23:01;;;;;;;0.10;0.00;;;18.70;99.90;;;;;;5075118;28;20437;-85
2022/06/15 09:25:35;;;;;;;0.10;0.10;;;19.40;99.90;;;;;;5079526;28;20451;-85
2022/06/15 09:28:25;;;;;;;0.10;0.00;;;20.20;99.90;;;;;;5071501;28;20444;-85
2022/06/15 09:30:52;;;;;;;0.10;0.00;;;20.50;99.90;;;;;;5059642;28;20452;-84
2022/06/15 09:33:35;;;;;;;0.10;0.00;;;21.00;99.90;;;;;;5059884;28;20455;-85
2022/06/15 09:36:12;;;;;;;0.10;0.00;;;20.70;99.90;;;;;;5055274;28;20481;-85
2022/06/15 09:38:39;;;;;;;0.10;0.00;;;20.80;99.90;;;;;;5072948;28;20971;-84
2022/06/15 09:41:15;;;;;;;0.10;0.00;;;21.20;99.90;;;;;;5064568;28;20526;-84
2022/06/15 09:43:47;;;;;;;0.10;0.00;;;20.60;99.90;;;;;;5068449;28;20454;-85
2022/06/15 09:46:33;;;;;;;0.10;0.00;;;21.70;99.90;;;;;;5057331;28;20547;-84
2022/06/15 09:49:06;;;;;;;0.10;0.00;;;21.50;99.90;;;;;;5054468;28;20452;-85
2022/06/15 09:51:55;;;;;;;0.10;0.00;;;20.80;99.90;;;;;;5055421;28;20489;-85
2022/06/15 09:54:36;;;;;;;0.10;0.00;;;19.80;99.90;;;;;;5066091;28;20447;-85
2022/06/15 09:57:02;;;;;;;0.10;0.00;;;19.60;99.90;;;;;;5069938;28;20939;-84
2022/06/15 09:59:33;;;;;;;0.10;0.00;;;19.50;99.90;;;;;;5073128;28;20529;-85
2022/06/15 10:02:02;;;;;;;0.10;0.00;;;20.40;99.90;;;;;;5059818;28;20187;-83
2022/06/15 10:04:31;;;;;;;0.10;0.00;;;20.50;99.90;;;;;;5056585;28;20490;-84
2022/06/15 10:07:02;;;;;;;0.10;0.10;;;20.40;99.90;;;;;;5056698;28;20800;-85
2022/06/15 10:09:30;;;;;;;0.10;0.00;;;20.20;99.90;;;;;;5067479;28;21225;-84
2022/06/15 10:14:43;;;;;;;0.10;0.00;;;20.70;99.90;;;;;;5069979;28;20490;-84
2022/06/15 10:17:38;;;;;;;0.10;0.00;;;21.20;99.90;;;;;;5058897;28;20840;-85
2022/06/15 10:20:05;;;;;;;0.10;0.00;;;21.50;99.90;;;;;;5058454;28;20310;-84
2022/06/15 10:22:37;;;;;;;0.10;0.00;;;21.10;99.90;;;;;;5064398;28;20521;-84
2022/06/15 10:25:04;;;;;;;0.10;0.00;;;20.70;99.90;;;;;;5070797;28;20843;-85
2022/06/15 10:27:30;;;;;;;0.10;0.00;;;20.50;99.90;;;;;;5069551;28;20507;-84
2022/06/15 10:30:08;;;;;;;0.10;0.00;;;20.40;99.90;;;;;;5068013;28;20451;-85
2022/06/15 10:32:36;;;;;;;0.10;0.00;;;20.00;99.90;;;;;;5052168;28;20224;-85
2022/06/15 10:35:15;;;;;;;0.10;0.00;;;20.30;99.90;;;;;;5056793;28;20522;-85
2022/06/15 10:37:44;;;;;;;0.10;0.00;;;20.50;99.90;;;;;;5051211;28;20461;-85
2022/06/15 10:40:29;;;;;;;0.10;0.00;;;21.40;99.90;;;;;;5058565;28;20514;-85
2022/06/15 10:43:05;;;;;;;0.10;0.00;;;21.60;99.90;;;;;;5070211;28;20965;-87
2022/06/15 10:45:54;;;;;;;0.10;0.00;;;21.10;99.90;;;;;;5068893;28;20436;-87
2022/06/15 10:48:41;;;;;;;0.10;0.00;;;21.00;99.90;;;;;;5071536;28;20887;-85
2022/06/15 10:51:08;;;;;;;0.10;0.00;;;21.10;99.90;;;;;;5053592;28;20499;-86
2022/06/15 10:54:13;;;;;;;0.10;0.10;;;20.70;99.90;;;;;;5063906;28;20849;-86
2022/06/15 11:02:31;;;;;;;0.10;0.00;;;22.10;99.90;;;;;;5052216;28;20448;-84
2022/06/15 11:05:25;;;;;;;0.10;0.00;;;23.60;99.90;;;;;;5070134;28;20811;-86
2022/06/15 11:07:59;;;;;;;0.10;0.00;;;23.40;99.90;;;;;;5048125;28;20796;-87
2022/06/15 11:10:31;;;;;;;0.10;0.00;;;22.40;99.90;;;;;;5060960;28;21130;-87
2022/06/15 11:13:04;;;;;;;0.10;0.00;;;22.30;99.90;;;;;;5069858;28;20439;-87
2022/06/15 11:18:32;;;;;;;0.10;0.00;;;22.10;99.90;;;;;;5050257;28;21006;-85
2022/06/15 11:21:15;;;;;;;0.10;0.00;;;21.70;99.90;;;;;;5049671;28;20913;-84
2022/06/15 11:24:01;;;;;;;0.10;0.00;;;21.20;99.90;;;;;;5064741;28;20447;-84
2022/06/15 11:26:53;;;;;;;0.10;0.00;;;21.20;99.90;;;;;;5067136;28;20456;-85
2022/06/15 11:29:36;;;;;;;0.10;0.00;;;21.60;99.90;;;;;;5052733;28;20487;-85
2022/06/15 11:32:33;;;;;;;0.10;0.00;;;21.80;99.90;;;;;;5072055;28;20598;-84
2022/06/15 11:35:11;;;;;;;0.10;0.00;;;21.90;99.90;;;;;;5050913;28;20475;-84
2022/06/15 11:37:49;;;;;;;0.10;0.00;;;21.80;99.90;;;;;;5051497;28;20505;-86
2022/06/15 11:40:35;;;;;;;0.10;0.00;;;22.00;99.90;;;;;;5052742;28;20473;-85
2022/06/15 11:43:03;;;;;;;0.10;0.00;;;21.80;99.90;;;;;;5050531;28;20449;-86
2022/06/15 11:45:54;;;;;;;0.10;0.00;;;21.80;99.90;;;;;;5053972;28;20441;-84
2022/06/15 11:48:36;;;;;;;0.10;0.00;;;21.30;99.90;;;;;;5052325;28;20449;-85
2022/06/15 11:51:48;;;;;;;0.10;0.00;;;21.20;99.90;;;;;;5071769;28;20439;-84
2022/06/15 11:54:41;;;;;;;0.10;0.00;;;21.50;99.90;;;;;;5076228;28;20962;-84
2022/06/15 11:57:09;;;;;;;0.10;0.00;;;23.20;99.90;;;;;;5058726;28;20459;-84
2022/06/15 11:59:44;;;;;;;0.10;0.00;;;23.70;99.90;;;;;;5059880;28;20537;-84
2022/06/15 12:02:44;;;;;;;0.10;0.00;;;23.50;99.90;;;;;;5072389;28;20694;-84
2022/06/15 12:05:18;;;;;;;0.10;0.00;;;23.20;99.90;;;;;;5063456;28;20863;-83
2022/06/15 12:08:11;;;;;;;0.10;0.00;;;22.40;99.90;;;;;;5067515;28;20452;-84
2022/06/15 12:10:55;;;;;;;0.10;0.00;;;21.60;99.90;;;;;;5068024;28;20453;-83
2022/06/15 12:13:25;;;;;;;0.10;0.00;;;21.70;99.90;;;;;;5070480;28;21060;-82
2022/06/15 12:16:02;;;;;;;0.10;0.00;;;21.90;99.90;;;;;;5063773;28;20864;-82
2022/06/15 12:18:36;;;;;;;0.10;0.00;;;21.30;99.90;;;;;;5060938;28;20650;-82
2022/06/15 12:21:15;;;;;;;0.10;0.00;;;21.50;99.90;;;;;;5062027;28;20815;-82
2022/06/15 12:24:09;;;;;;;0.10;0.00;;;22.20;99.90;;;;;;5058982;28;20431;-82
2022/06/15 12:27:02;;;;;;;0.10;0.00;;;22.50;99.90;;;;;;5056118;28;20435;-82
2022/06/15 12:29:53;;;;;;;0.10;0.00;;;22.20;99.90;;;;;;5063386;28;20439;-83
2022/06/15 12:32:34;;;;;;;0.10;0.00;;;21.90;99.90;;;;;;5064509;28;20544;-83
2022/06/15 12:35:30;;;;;;;0.10;0.00;;;22.30;99.90;;;;;;5054253;28;20834;-82
2022/06/15 12:38:11;;;;;;;0.10;0.00;;;22.00;99.90;;;;;;5055295;28;20440;-81
2022/06/15 12:40:41;;;;;;;0.10;0.00;;;23.30;99.90;;;;;;5054308;28;20517;-84
2022/06/15 12:43:29;;;;;;;0.10;0.00;;;24.80;99.90;;;;;;5065354;28;20444;-84
2022/06/15 12:46:16;;;;;;;0.10;0.00;;;24.60;99.90;;;;;;5049537;28;20828;-83
2022/06/15 14:01:46;;;;;;;0.00;0.00;;;23.20;99.90;;;;;;5076883;27;22196;-82
2022/06/15 14:04:42;;;;;;;0.00;0.00;;;23.30;99.90;;;;;;5059516;28;20445;-83
2022/06/15 14:07:47;;;;;;;0.00;0.00;;;23.60;99.90;;;;;;5065999;28;20440;-83
2022/06/15 14:10:32;;;;;;;0.00;0.00;;;24.20;99.90;;;;;;5058902;28;20478;-80
2022/06/15 14:13:29;;;;;;;0.10;0.00;;;24.40;99.90;;;;;;5067141;28;20451;-80
2022/06/15 14:16:13;;;;;;;0.10;0.00;;;24.40;99.90;;;;;;5058974;28;20535;-82
2022/06/15 14:18:49;;;;;;;0.10;0.00;;;23.70;99.90;;;;;;5058798;28;20478;-84
2022/06/15 14:21:22;;;;;;;0.10;0.00;;;23.60;99.90;;;;;;5065233;28;20919;-82
2022/06/15 14:23:48;;;;;;;0.10;0.00;;;23.20;99.90;;;;;;5059872;28;21896;-82
2022/06/15 14:26:19;;;;;;;0.10;0.00;;;23.20;99.90;;;;;;5063399;28;20452;-85
2022/06/15 14:28:52;;;;;;;0.10;0.00;;;23.20;99.90;;;;;;5065263;28;20429;-82
2022/06/15 14:31:20;;;;;;;0.10;0.00;;;23.80;99.90;;;;;;5069203;28;20942;-84
2022/06/15 14:33:58;;;;;;;0.10;0.00;;;24.30;99.90;;;;;;5066019;28;20451;-84
2022/06/15 14:36:26;;;;;;;0.10;0.00;;;24.10;99.90;;;;;;5067284;28;20516;-84
2022/06/15 14:39:12;;;;;;;0.10;0.00;;;24.20;99.90;;;;;;5061327;28;20467;-85
2022/06/15 14:41:38;;;;;;;0.10;0.00;;;23.10;99.90;;;;;;5066280;28;20975;-84
2022/06/15 14:44:21;;;;;;;0.10;0.00;;;22.20;99.90;;;;;;5061926;28;20973;-85
2022/06/15 14:46:48;;;;;;;0.10;0.00;;;22.10;99.90;;;;;;5051593;28;20436;-84
2022/06/15 14:49:28;;;;;;;0.10;0.00;;;22.30;99.90;;;;;;5048150;28;20445;-86
2022/06/15 14:52:19;;;;;;;0.10;0.00;;;22.70;99.90;;;;;;5050389;28;20448;-85
2022/06/15 14:54:49;;;;;;;0.10;0.00;;;22.60;99.90;;;;;;5065090;28;20497;-84
2022/06/15 14:57:24;;;;;;;0.10;0.00;;;22.90;99.90;;;;;;5047432;28;20451;-86
2022/06/15 14:59:55;;;;;;;0.10;0.00;;;22.90;99.90;;;;;;5060027;28;20484;-87
2022/06/15 15:02:22;;;;;;;0.10;0.00;;;23.40;99.90;;;;;;5092186;28;20447;-86
2022/06/15 15:04:52;;;;;;;0.10;0.00;;;23.40;99.90;;;;;;5066283;28;20546;-85
2022/06/15 15:10:25;;;;;;;0.10;0.00;;;22.70;99.90;;;;;;5044746;28;20428;-82
2022/06/15 15:12:51;;;;;;;0.10;0.00;;;22.80;99.90;;;;;;5049145;28;20543;-82
2022/06/15 15:15:18;;;;;;;0.10;0.00;;;22.70;99.90;;;;;;5042709;28;20466;-82
2022/06/15 15:17:50;;;;;;;0.10;0.00;;;22.70;99.90;;;;;;5058127;28;20447;-82
2022/06/15 15:20:35;;;;;;;0.10;0.00;;;22.80;99.90;;;;;;5047322;28;20588;-82
2022/06/15 15:23:03;;;;;;;0.10;0.00;;;22.70;99.90;;;;;;5041014;28;20444;-81
2022/06/15 15:25:53;;;;;;;0.10;0.00;;;22.70;99.90;;;;;;5045272;28;20433;-82
2022/06/15 15:34:11;;;;;;;0.10;0.00;;;23.10;99.90;;;;;;5047082;28;20617;-82